Springridge, Louisiana
Current Conditions -  °F | °C
As of 7:56 AM on Wednesday 26 Nov 2014 (Local Time) from KSHV Reporting Station
Scattered Clouds Scattered Clouds  
Wind Chill: 41°   Ceiling: Unl
Heat Index: 47°   Visibility: 10mi
Dew Point: 34°   Wind: 14mph
Humidity: 61%   Direction: 210°SSW
Pressure: 30.09"   Gusts: NA
Location:  32.3035°N, 93.9134°W
Report Text: KSHV 261356Z 21012KT 10SM SCT250 08/01 A3009 RMK AO2 SLP189 T00830011
Loading
Personal Weather Stations






























Interactive Weather Map New forecast layout! Learn more

10-Day Weather Forecast

Advertisements
Track Severe Weather on mobile